Weather at Robledillo De Mohernando Airport

Public forecast

Using degrees Celsius for public forecast. Weather courtesy of forecast.io.

Closest aviation weather report (METAR) to Robledillo De Mohernando Airport

Closest report is Torrejón Airport, 23.9 nm (44.3 km) SSW. Retrieved 2020/09/20 10:30 UTC (7 minutes ago):

LETO 201030Z 21010KT 9999 SCT025 BKN035 19/15 Q1019 NOSIG

Closest aviation forecast (TAF) to Robledillo De Mohernando Airport

Closest forecast is Torrejón Airport, 23.9 nm (44.3 km) SSW. Retrieved 2020/09/20 06:00 UTC (5 hours ago):

TAF LETO 200500Z 2006/2106 21006KT 9999 FEW035 SCT045 TX23/2016Z TN10/2106Z BECMG 2008/2010 24011KT PROB40 TEMPO 2006/2010 2500 BCFG BKN005 TEMPO 2009/2012 BKN012 PROB30 TEMPO 2009/2021 DZRA BKN030 BECMG 2023/2101 VRB05KT